sensor_id;sensor_type;location;lat;lon;timestamp;temperature;humidity
21318;DHT22;10818;50.830;6.524;2022-07-29T00:04:47;19.90;99.90
21318;DHT22;10818;50.830;6.524;2022-07-29T00:09:47;19.80;99.90
21318;DHT22;10818;50.830;6.524;2022-07-29T00:14:48;19.70;99.90
21318;DHT22;10818;50.830;6.524;2022-07-29T00:19:48;19.70;99.90
21318;DHT22;10818;50.830;6.524;2022-07-29T00:24:49;19.70;99.90
21318;DHT22;10818;50.830;6.524;2022-07-29T00:29:49;19.60;99.90
21318;DHT22;10818;50.830;6.524;2022-07-29T00:34:50;19.50;99.90
21318;DHT22;10818;50.830;6.524;2022-07-29T00:40:09;19.60;99.90
21318;DHT22;10818;50.830;6.524;2022-07-29T00:45:10;19.50;99.90
21318;DHT22;10818;50.830;6.524;2022-07-29T00:50:11;19.30;99.90
21318;DHT22;10818;50.830;6.524;2022-07-29T00:55:13;19.40;99.90
21318;DHT22;10818;50.830;6.524;2022-07-29T01:00:15;19.30;99.90
21318;DHT22;10818;50.830;6.524;2022-07-29T01:05:17;19.20;99.90
21318;DHT22;10818;50.830;6.524;2022-07-29T01:10:18;19.10;99.90
21318;DHT22;10818;50.830;6.524;2022-07-29T01:15:19;19.00;99.90
21318;DHT22;10818;50.830;6.524;2022-07-29T01:20:30;18.90;99.90
21318;DHT22;10818;50.830;6.524;2022-07-29T01:30:42;18.80;99.90
21318;DHT22;10818;50.830;6.524;2022-07-29T01:35:43;18.70;99.90
21318;DHT22;10818;50.830;6.524;2022-07-29T01:40:48;18.70;99.90
21318;DHT22;10818;50.830;6.524;2022-07-29T01:45:51;18.60;99.90
21318;DHT22;10818;50.830;6.524;2022-07-29T01:50:53;18.60;99.90
21318;DHT22;10818;50.830;6.524;2022-07-29T01:55:55;18.60;99.90
21318;DHT22;10818;50.830;6.524;2022-07-29T02:00:58;18.60;99.90
21318;DHT22;10818;50.830;6.524;2022-07-29T02:05:59;18.70;99.90
21318;DHT22;10818;50.830;6.524;2022-07-29T02:11:01;18.70;99.90
21318;DHT22;10818;50.830;6.524;2022-07-29T02:16:04;18.60;99.90
21318;DHT22;10818;50.830;6.524;2022-07-29T02:21:05;18.60;99.90
21318;DHT22;10818;50.830;6.524;2022-07-29T02:26:06;18.60;99.90
21318;DHT22;10818;50.830;6.524;2022-07-29T02:31:07;18.60;99.90
21318;DHT22;10818;50.830;6.524;2022-07-29T02:36:08;18.50;99.90
21318;DHT22;10818;50.830;6.524;2022-07-29T02:41:10;18.40;99.90
21318;DHT22;10818;50.830;6.524;2022-07-29T02:46:13;18.30;99.90
21318;DHT22;10818;50.830;6.524;2022-07-29T02:51:18;18.30;99.90
21318;DHT22;10818;50.830;6.524;2022-07-29T02:56:22;18.20;99.90
21318;DHT22;10818;50.830;6.524;2022-07-29T03:01:24;18.30;99.90
21318;DHT22;10818;50.830;6.524;2022-07-29T03:06:25;18.20;99.90
21318;DHT22;10818;50.830;6.524;2022-07-29T03:11:27;18.20;99.90
21318;DHT22;10818;50.830;6.524;2022-07-29T03:16:27;18.20;99.90
21318;DHT22;10818;50.830;6.524;2022-07-29T03:21:28;18.20;99.90
21318;DHT22;10818;50.830;6.524;2022-07-29T03:26:29;18.20;99.90
21318;DHT22;10818;50.830;6.524;2022-07-29T03:31:29;18.10;99.90
21318;DHT22;10818;50.830;6.524;2022-07-29T03:36:29;18.20;99.90
21318;DHT22;10818;50.830;6.524;2022-07-29T03:41:30;18.10;99.90
21318;DHT22;10818;50.830;6.524;2022-07-29T03:46:31;18.10;99.90
21318;DHT22;10818;50.830;6.524;2022-07-29T03:51:32;18.00;99.90
21318;DHT22;10818;50.830;6.524;2022-07-29T03:56:34;17.90;99.90
21318;DHT22;10818;50.830;6.524;2022-07-29T04:01:35;17.80;99.90
21318;DHT22;10818;50.830;6.524;2022-07-29T04:06:40;17.80;99.90
21318;DHT22;10818;50.830;6.524;2022-07-29T04:11:41;17.90;99.90
21318;DHT22;10818;50.830;6.524;2022-07-29T04:16:42;17.80;99.90
21318;DHT22;10818;50.830;6.524;2022-07-29T04:21:42;17.80;99.90
21318;DHT22;10818;50.830;6.524;2022-07-29T04:26:45;17.80;99.90
21318;DHT22;10818;50.830;6.524;2022-07-29T04:31:46;17.90;99.90
21318;DHT22;10818;50.830;6.524;2022-07-29T04:36:46;17.90;99.90
21318;DHT22;10818;50.830;6.524;2022-07-29T04:41:47;18.00;99.90
21318;DHT22;10818;50.830;6.524;2022-07-29T04:46:47;18.00;99.90
21318;DHT22;10818;50.830;6.524;2022-07-29T04:51:48;18.00;99.90
21318;DHT22;10818;50.830;6.524;2022-07-29T04:56:48;18.10;99.90
21318;DHT22;10818;50.830;6.524;2022-07-29T05:01:48;18.10;99.90
21318;DHT22;10818;50.830;6.524;2022-07-29T05:06:49;18.30;99.90
21318;DHT22;10818;50.830;6.524;2022-07-29T05:11:49;18.30;99.90
21318;DHT22;10818;50.830;6.524;2022-07-29T05:16:50;18.40;99.90
21318;DHT22;10818;50.830;6.524;2022-07-29T05:21:51;18.40;99.90
21318;DHT22;10818;50.830;6.524;2022-07-29T05:26:51;18.40;99.90
21318;DHT22;10818;50.830;6.524;2022-07-29T05:31:52;18.40;99.90
21318;DHT22;10818;50.830;6.524;2022-07-29T05:36:53;18.40;99.90
21318;DHT22;10818;50.830;6.524;2022-07-29T05:41:53;18.40;99.90
21318;DHT22;10818;50.830;6.524;2022-07-29T05:46:54;18.50;99.90
21318;DHT22;10818;50.830;6.524;2022-07-29T05:51:54;18.40;99.90
21318;DHT22;10818;50.830;6.524;2022-07-29T05:56:54;18.30;99.90
21318;DHT22;10818;50.830;6.524;2022-07-29T06:01:55;18.30;99.90
21318;DHT22;10818;50.830;6.524;2022-07-29T06:06:57;18.20;99.90
21318;DHT22;10818;50.830;6.524;2022-07-29T06:11:57;18.20;99.90
21318;DHT22;10818;50.830;6.524;2022-07-29T06:16:58;18.20;99.90
21318;DHT22;10818;50.830;6.524;2022-07-29T06:21:58;18.10;99.90
21318;DHT22;10818;50.830;6.524;2022-07-29T06:26:59;18.10;99.90
21318;DHT22;10818;50.830;6.524;2022-07-29T06:31:59;17.80;99.90
21318;DHT22;10818;50.830;6.524;2022-07-29T06:37:00;17.80;99.90
21318;DHT22;10818;50.830;6.524;2022-07-29T06:42:03;17.70;99.90
21318;DHT22;10818;50.830;6.524;2022-07-29T06:47:03;17.90;99.90
21318;DHT22;10818;50.830;6.524;2022-07-29T06:52:04;18.00;99.90
21318;DHT22;10818;50.830;6.524;2022-07-29T06:57:04;18.00;99.90
21318;DHT22;10818;50.830;6.524;2022-07-29T07:02:05;17.90;99.90
21318;DHT22;10818;50.830;6.524;2022-07-29T07:07:05;18.10;99.90
21318;DHT22;10818;50.830;6.524;2022-07-29T07:12:06;18.00;99.90
21318;DHT22;10818;50.830;6.524;2022-07-29T07:17:06;18.20;99.90
21318;DHT22;10818;50.830;6.524;2022-07-29T07:22:07;18.20;99.90
21318;DHT22;10818;50.830;6.524;2022-07-29T07:27:08;18.50;99.90
21318;DHT22;10818;50.830;6.524;2022-07-29T07:32:08;19.10;99.90
21318;DHT22;10818;50.830;6.524;2022-07-29T07:37:09;19.20;99.90
21318;DHT22;10818;50.830;6.524;2022-07-29T07:42:09;19.40;99.90
21318;DHT22;10818;50.830;6.524;2022-07-29T07:47:12;19.10;99.90
21318;DHT22;10818;50.830;6.524;2022-07-29T07:52:13;19.20;99.90
21318;DHT22;10818;50.830;6.524;2022-07-29T07:57:14;19.40;99.90
21318;DHT22;10818;50.830;6.524;2022-07-29T08:02:15;19.40;99.90
21318;DHT22;10818;50.830;6.524;2022-07-29T08:07:15;19.50;99.90
21318;DHT22;10818;50.830;6.524;2022-07-29T08:12:16;19.40;99.90
21318;DHT22;10818;50.830;6.524;2022-07-29T08:17:16;19.70;99.90
21318;DHT22;10818;50.830;6.524;2022-07-29T08:22:17;24.30;99.90
21318;DHT22;10818;50.830;6.524;2022-07-29T08:27:17;27.80;99.90
21318;DHT22;10818;50.830;6.524;2022-07-29T08:32:18;30.90;99.90
21318;DHT22;10818;50.830;6.524;2022-07-29T08:37:19;30.20;97.30
21318;DHT22;10818;50.830;6.524;2022-07-29T08:42:19;28.30;99.60
21318;DHT22;10818;50.830;6.524;2022-07-29T08:47:20;28.20;99.90
21318;DHT22;10818;50.830;6.524;2022-07-29T08:52:21;27.60;99.90
21318;DHT22;10818;50.830;6.524;2022-07-29T08:57:21;26.70;99.90
21318;DHT22;10818;50.830;6.524;2022-07-29T09:02:23;26.30;99.90
21318;DHT22;10818;50.830;6.524;2022-07-29T09:07:24;25.80;99.90
21318;DHT22;10818;50.830;6.524;2022-07-29T09:12:25;26.10;99.90
21318;DHT22;10818;50.830;6.524;2022-07-29T09:22:42;25.20;99.90
21318;DHT22;10818;50.830;6.524;2022-07-29T09:27:42;25.50;99.90
21318;DHT22;10818;50.830;6.524;2022-07-29T09:32:57;26.00;99.90
21318;DHT22;10818;50.830;6.524;2022-07-29T09:38:00;26.50;99.70
21318;DHT22;10818;50.830;6.524;2022-07-29T09:43:10;27.00;99.40
21318;DHT22;10818;50.830;6.524;2022-07-29T09:48:29;27.70;98.30
21318;DHT22;10818;50.830;6.524;2022-07-29T09:53:33;28.40;99.10
21318;DHT22;10818;50.830;6.524;2022-07-29T09:58:33;28.80;98.00
21318;DHT22;10818;50.830;6.524;2022-07-29T10:03:50;28.80;98.30
21318;DHT22;10818;50.830;6.524;2022-07-29T10:08:50;29.10;98.30
21318;DHT22;10818;50.830;6.524;2022-07-29T10:13:52;28.30;95.40
21318;DHT22;10818;50.830;6.524;2022-07-29T10:18:52;28.10;96.10
21318;DHT22;10818;50.830;6.524;2022-07-29T10:23:53;28.20;98.60
21318;DHT22;10818;50.830;6.524;2022-07-29T10:28:54;28.20;97.40
21318;DHT22;10818;50.830;6.524;2022-07-29T10:34:16;27.80;96.30
21318;DHT22;10818;50.830;6.524;2022-07-29T10:39:24;28.30;96.70
21318;DHT22;10818;50.830;6.524;2022-07-29T10:44:28;27.80;96.70
21318;DHT22;10818;50.830;6.524;2022-07-29T10:49:28;28.30;96.80
21318;DHT22;10818;50.830;6.524;2022-07-29T10:59:33;27.50;94.90
21318;DHT22;10818;50.830;6.524;2022-07-29T11:09:43;27.30;95.60
21318;DHT22;10818;50.830;6.524;2022-07-29T11:19:55;28.00;96.50
21318;DHT22;10818;50.830;6.524;2022-07-29T11:25:16;27.40;96.60
21318;DHT22;10818;50.830;6.524;2022-07-29T11:30:17;27.30;96.10
21318;DHT22;10818;50.830;6.524;2022-07-29T11:35:19;27.80;97.90
21318;DHT22;10818;50.830;6.524;2022-07-29T11:40:23;28.10;95.00
21318;DHT22;10818;50.830;6.524;2022-07-29T11:45:24;27.80;94.70
21318;DHT22;10818;50.830;6.524;2022-07-29T11:50:29;28.40;94.60
21318;DHT22;10818;50.830;6.524;2022-07-29T11:55:30;28.40;93.50
21318;DHT22;10818;50.830;6.524;2022-07-29T12:00:36;28.10;95.10
21318;DHT22;10818;50.830;6.524;2022-07-29T12:05:39;28.10;95.10
21318;DHT22;10818;50.830;6.524;2022-07-29T12:10:40;28.40;95.30
21318;DHT22;10818;50.830;6.524;2022-07-29T12:15:41;28.80;94.00
21318;DHT22;10818;50.830;6.524;2022-07-29T12:20:44;28.60;92.70
21318;DHT22;10818;50.830;6.524;2022-07-29T12:25:45;28.40;93.10
21318;DHT22;10818;50.830;6.524;2022-07-29T12:30:47;28.40;93.10
21318;DHT22;10818;50.830;6.524;2022-07-29T12:35:53;28.70;92.50
21318;DHT22;10818;50.830;6.524;2022-07-29T12:40:54;28.60;92.80
21318;DHT22;10818;50.830;6.524;2022-07-29T12:45:56;29.00;92.50
21318;DHT22;10818;50.830;6.524;2022-07-29T12:51:01;29.00;92.20
21318;DHT22;10818;50.830;6.524;2022-07-29T12:56:01;29.10;92.00
21318;DHT22;10818;50.830;6.524;2022-07-29T13:06:03;28.80;91.90
21318;DHT22;10818;50.830;6.524;2022-07-29T13:11:04;28.90;90.90
21318;DHT22;10818;50.830;6.524;2022-07-29T13:16:06;29.00;90.60
21318;DHT22;10818;50.830;6.524;2022-07-29T13:21:11;28.90;91.20
21318;DHT22;10818;50.830;6.524;2022-07-29T13:26:12;28.70;91.80
21318;DHT22;10818;50.830;6.524;2022-07-29T13:31:12;28.80;91.70
21318;DHT22;10818;50.830;6.524;2022-07-29T13:36:13;28.40;91.50
21318;DHT22;10818;50.830;6.524;2022-07-29T13:41:13;28.60;91.60
21318;DHT22;10818;50.830;6.524;2022-07-29T13:46:14;28.60;92.00
21318;DHT22;10818;50.830;6.524;2022-07-29T13:51:14;28.50;91.90
21318;DHT22;10818;50.830;6.524;2022-07-29T13:56:15;28.30;92.30
21318;DHT22;10818;50.830;6.524;2022-07-29T14:01:15;28.60;91.90
21318;DHT22;10818;50.830;6.524;2022-07-29T14:06:16;28.30;91.40
21318;DHT22;10818;50.830;6.524;2022-07-29T14:11:16;28.20;92.00
21318;DHT22;10818;50.830;6.524;2022-07-29T14:16:17;28.00;91.70
21318;DHT22;10818;50.830;6.524;2022-07-29T14:21:17;27.90;91.60
21318;DHT22;10818;50.830;6.524;2022-07-29T14:26:18;28.20;91.20
21318;DHT22;10818;50.830;6.524;2022-07-29T14:31:19;28.00;91.90
21318;DHT22;10818;50.830;6.524;2022-07-29T14:36:19;28.40;92.40
21318;DHT22;10818;50.830;6.524;2022-07-29T14:41:19;28.70;91.60
21318;DHT22;10818;50.830;6.524;2022-07-29T14:46:21;28.50;92.10
21318;DHT22;10818;50.830;6.524;2022-07-29T14:51:22;28.70;91.60
21318;DHT22;10818;50.830;6.524;2022-07-29T14:56:22;28.70;91.70
21318;DHT22;10818;50.830;6.524;2022-07-29T15:01:23;28.50;91.20
21318;DHT22;10818;50.830;6.524;2022-07-29T15:06:24;28.40;91.10
21318;DHT22;10818;50.830;6.524;2022-07-29T15:11:25;28.30;90.30
21318;DHT22;10818;50.830;6.524;2022-07-29T15:16:25;28.30;91.10
21318;DHT22;10818;50.830;6.524;2022-07-29T15:21:26;28.10;90.80
21318;DHT22;10818;50.830;6.524;2022-07-29T15:26:26;28.10;90.80
21318;DHT22;10818;50.830;6.524;2022-07-29T15:31:26;28.50;91.10
21318;DHT22;10818;50.830;6.524;2022-07-29T15:36:27;28.40;90.80
21318;DHT22;10818;50.830;6.524;2022-07-29T15:41:27;28.40;91.20
21318;DHT22;10818;50.830;6.524;2022-07-29T15:46:30;28.60;90.40
21318;DHT22;10818;50.830;6.524;2022-07-29T15:51:49;28.90;89.70
21318;DHT22;10818;50.830;6.524;2022-07-29T15:56:49;28.80;88.50
21318;DHT22;10818;50.830;6.524;2022-07-29T16:01:50;28.70;89.10
21318;DHT22;10818;50.830;6.524;2022-07-29T16:06:50;28.60;88.90
21318;DHT22;10818;50.830;6.524;2022-07-29T16:11:51;27.70;89.80
21318;DHT22;10818;50.830;6.524;2022-07-29T16:16:53;27.50;90.40
21318;DHT22;10818;50.830;6.524;2022-07-29T16:21:54;27.40;91.10
21318;DHT22;10818;50.830;6.524;2022-07-29T16:26:54;27.50;91.60
21318;DHT22;10818;50.830;6.524;2022-07-29T16:31:55;27.50;91.60
21318;DHT22;10818;50.830;6.524;2022-07-29T16:36:56;27.50;91.50
21318;DHT22;10818;50.830;6.524;2022-07-29T16:41:56;27.50;91.90
21318;DHT22;10818;50.830;6.524;2022-07-29T16:46:56;27.50;91.60
21318;DHT22;10818;50.830;6.524;2022-07-29T16:51:57;27.60;92.10
21318;DHT22;10818;50.830;6.524;2022-07-29T16:56:58;27.50;92.90
21318;DHT22;10818;50.830;6.524;2022-07-29T17:02:00;27.20;93.20
21318;DHT22;10818;50.830;6.524;2022-07-29T17:07:01;26.90;93.80
21318;DHT22;10818;50.830;6.524;2022-07-29T17:12:02;26.70;94.00
21318;DHT22;10818;50.830;6.524;2022-07-29T17:17:02;26.60;94.30
21318;DHT22;10818;50.830;6.524;2022-07-29T17:22:03;26.40;94.40
21318;DHT22;10818;50.830;6.524;2022-07-29T17:27:04;26.30;94.60
21318;DHT22;10818;50.830;6.524;2022-07-29T17:32:05;26.30;94.90
21318;DHT22;10818;50.830;6.524;2022-07-29T17:37:06;26.00;95.30
21318;DHT22;10818;50.830;6.524;2022-07-29T17:42:07;26.00;95.40
21318;DHT22;10818;50.830;6.524;2022-07-29T17:47:08;25.90;95.60
21318;DHT22;10818;50.830;6.524;2022-07-29T17:52:09;25.80;95.70
21318;DHT22;10818;50.830;6.524;2022-07-29T17:57:10;25.70;95.80
21318;DHT22;10818;50.830;6.524;2022-07-29T18:02:10;25.70;96.00
21318;DHT22;10818;50.830;6.524;2022-07-29T18:07:13;25.90;96.40
21318;DHT22;10818;50.830;6.524;2022-07-29T18:12:13;25.70;96.00
21318;DHT22;10818;50.830;6.524;2022-07-29T18:17:14;25.50;96.20
21318;DHT22;10818;50.830;6.524;2022-07-29T18:22:14;25.50;96.10
21318;DHT22;10818;50.830;6.524;2022-07-29T18:27:15;25.10;96.60
21318;DHT22;10818;50.830;6.524;2022-07-29T18:32:15;24.90;96.90
21318;DHT22;10818;50.830;6.524;2022-07-29T18:37:16;24.80;97.30
21318;DHT22;10818;50.830;6.524;2022-07-29T18:42:16;24.70;98.00
21318;DHT22;10818;50.830;6.524;2022-07-29T18:47:17;24.50;97.80
21318;DHT22;10818;50.830;6.524;2022-07-29T18:52:17;24.20;98.20
21318;DHT22;10818;50.830;6.524;2022-07-29T18:57:18;23.90;98.60
21318;DHT22;10818;50.830;6.524;2022-07-29T19:02:19;24.00;98.90
21318;DHT22;10818;50.830;6.524;2022-07-29T19:07:19;23.80;99.40
21318;DHT22;10818;50.830;6.524;2022-07-29T19:12:22;23.60;99.50
21318;DHT22;10818;50.830;6.524;2022-07-29T19:17:23;23.40;99.90
21318;DHT22;10818;50.830;6.524;2022-07-29T19:22:23;23.30;99.90
21318;DHT22;10818;50.830;6.524;2022-07-29T19:27:24;23.20;99.90
21318;DHT22;10818;50.830;6.524;2022-07-29T19:32:25;23.20;99.90
21318;DHT22;10818;50.830;6.524;2022-07-29T19:37:25;23.20;99.90
21318;DHT22;10818;50.830;6.524;2022-07-29T19:42:26;23.10;99.90
21318;DHT22;10818;50.830;6.524;2022-07-29T19:47:26;23.10;99.90
21318;DHT22;10818;50.830;6.524;2022-07-29T19:52:27;23.10;99.90
21318;DHT22;10818;50.830;6.524;2022-07-29T19:57:27;23.10;99.90
21318;DHT22;10818;50.830;6.524;2022-07-29T20:02:28;23.00;99.90
21318;DHT22;10818;50.830;6.524;2022-07-29T20:07:28;22.90;99.90
21318;DHT22;10818;50.830;6.524;2022-07-29T20:12:29;22.80;99.90
21318;DHT22;10818;50.830;6.524;2022-07-29T20:17:29;22.70;99.90
21318;DHT22;10818;50.830;6.524;2022-07-29T20:22:30;22.50;99.90
21318;DHT22;10818;50.830;6.524;2022-07-29T20:27:30;22.30;99.90
21318;DHT22;10818;50.830;6.524;2022-07-29T20:32:30;22.20;99.90
21318;DHT22;10818;50.830;6.524;2022-07-29T20:37:31;21.90;99.90
21318;DHT22;10818;50.830;6.524;2022-07-29T20:42:32;21.70;99.90
21318;DHT22;10818;50.830;6.524;2022-07-29T20:47:33;21.50;99.90
21318;DHT22;10818;50.830;6.524;2022-07-29T20:52:33;21.30;99.90
21318;DHT22;10818;50.830;6.524;2022-07-29T20:57:34;21.10;99.90
21318;DHT22;10818;50.830;6.524;2022-07-29T21:02:34;21.00;99.90
21318;DHT22;10818;50.830;6.524;2022-07-29T21:07:35;20.80;99.90
21318;DHT22;10818;50.830;6.524;2022-07-29T21:12:36;20.60;99.90
21318;DHT22;10818;50.830;6.524;2022-07-29T21:17:36;20.50;99.90
21318;DHT22;10818;50.830;6.524;2022-07-29T21:22:39;20.40;99.90
21318;DHT22;10818;50.830;6.524;2022-07-29T21:27:40;20.30;99.90
21318;DHT22;10818;50.830;6.524;2022-07-29T21:33:02;20.10;99.90
21318;DHT22;10818;50.830;6.524;2022-07-29T21:38:03;20.00;99.90
21318;DHT22;10818;50.830;6.524;2022-07-29T21:43:03;19.90;99.90
21318;DHT22;10818;50.830;6.524;2022-07-29T21:48:04;19.80;99.90
21318;DHT22;10818;50.830;6.524;2022-07-29T21:53:05;19.70;99.90
21318;DHT22;10818;50.830;6.524;2022-07-29T21:58:06;19.60;99.90
21318;DHT22;10818;50.830;6.524;2022-07-29T22:03:06;19.60;99.90
21318;DHT22;10818;50.830;6.524;2022-07-29T22:08:07;19.40;99.90
21318;DHT22;10818;50.830;6.524;2022-07-29T22:13:08;19.30;99.90
21318;DHT22;10818;50.830;6.524;2022-07-29T22:18:08;19.30;99.90
21318;DHT22;10818;50.830;6.524;2022-07-29T22:23:08;19.20;99.90
21318;DHT22;10818;50.830;6.524;2022-07-29T22:28:09;19.10;99.90
21318;DHT22;10818;50.830;6.524;2022-07-29T22:33:09;19.00;99.90
21318;DHT22;10818;50.830;6.524;2022-07-29T22:38:10;18.90;99.90
21318;DHT22;10818;50.830;6.524;2022-07-29T22:43:11;18.80;99.90
21318;DHT22;10818;50.830;6.524;2022-07-29T22:48:11;18.80;99.90
21318;DHT22;10818;50.830;6.524;2022-07-29T22:53:12;18.70;99.90
21318;DHT22;10818;50.830;6.524;2022-07-29T22:58:12;18.70;99.90
21318;DHT22;10818;50.830;6.524;2022-07-29T23:03:13;18.60;99.90
21318;DHT22;10818;50.830;6.524;2022-07-29T23:08:13;18.50;99.90
21318;DHT22;10818;50.830;6.524;2022-07-29T23:13:14;18.50;99.90
21318;DHT22;10818;50.830;6.524;2022-07-29T23:18:14;18.40;99.90
21318;DHT22;10818;50.830;6.524;2022-07-29T23:23:15;18.40;99.90
21318;DHT22;10818;50.830;6.524;2022-07-29T23:28:16;18.30;99.90
21318;DHT22;10818;50.830;6.524;2022-07-29T23:33:16;18.20;99.90
21318;DHT22;10818;50.830;6.524;2022-07-29T23:38:16;18.10;99.90
21318;DHT22;10818;50.830;6.524;2022-07-29T23:43:17;18.10;99.90
21318;DHT22;10818;50.830;6.524;2022-07-29T23:48:17;18.10;99.90
21318;DHT22;10818;50.830;6.524;2022-07-29T23:53:19;18.00;99.90
21318;DHT22;10818;50.830;6.524;2022-07-29T23:58:20;18.10;99.90
